createdAt,value
2018-02-04T00:02:19.399Z,15.33
2018-02-04T00:04:47.000Z,13.80
2018-02-04T00:07:14.544Z,16.77
2018-02-04T00:09:42.065Z,13.03
2018-02-04T00:12:09.594Z,14.43
2018-02-04T00:14:37.142Z,14.47
2018-02-04T00:17:04.670Z,12.00
2018-02-04T00:19:32.219Z,11.43
2018-02-04T00:21:59.735Z,11.00
2018-02-04T00:24:27.365Z,11.20
2018-02-04T00:26:55.136Z,11.70
2018-02-04T00:29:22.688Z,11.93
2018-02-04T00:31:50.768Z,11.20
2018-02-04T00:34:18.335Z,13.30
2018-02-04T00:36:45.906Z,12.53
2018-02-04T00:39:13.478Z,12.07
2018-02-04T00:41:41.132Z,10.87
2018-02-04T00:44:09.000Z,11.73
2018-02-04T00:46:36.532Z,11.10
2018-02-04T00:49:04.085Z,11.80
2018-02-04T00:51:31.686Z,13.37
2018-02-04T00:53:59.226Z,13.57
2018-02-04T00:56:26.819Z,11.70
2018-02-04T00:58:54.363Z,15.20
2018-02-04T01:01:22.223Z,12.70
2018-02-04T01:03:49.914Z,10.77
2018-02-04T01:06:17.463Z,14.87
2018-02-04T01:08:45.043Z,11.90
2018-02-04T01:11:12.570Z,12.03
2018-02-04T01:13:40.163Z,12.50
2018-02-04T01:16:07.992Z,11.50
2018-02-04T01:18:35.545Z,11.47
2018-02-04T01:21:03.102Z,11.37
2018-02-04T01:23:30.892Z,13.03
2018-02-04T01:25:58.462Z,17.00
2018-02-04T01:28:26.312Z,11.00
2018-02-04T01:30:53.851Z,11.00
2018-02-04T01:33:21.371Z,17.60
2018-02-04T01:35:49.239Z,12.60
2018-02-04T01:38:16.816Z,11.53
2018-02-04T01:40:44.624Z,11.37
2018-02-04T01:43:12.593Z,12.47
2018-02-04T01:45:40.193Z,14.10
2018-02-04T01:48:07.797Z,12.30
2018-02-04T01:50:35.405Z,10.60
2018-02-04T01:53:02.957Z,12.30
2018-02-04T01:55:30.509Z,12.73
2018-02-04T01:57:58.063Z,11.17
2018-02-04T02:00:25.609Z,13.50
2018-02-04T02:02:53.387Z,12.03
2018-02-04T02:05:20.938Z,14.87
2018-02-04T02:07:48.462Z,12.27
2018-02-04T02:10:15.985Z,10.40
2018-02-04T02:12:43.533Z,11.30
2018-02-04T02:15:11.393Z,12.80
2018-02-04T02:17:39.014Z,10.70
2018-02-04T02:20:06.925Z,12.47
2018-02-04T02:22:34.491Z,11.50
2018-02-04T02:25:02.054Z,10.80
2018-02-04T02:27:29.609Z,12.10
2018-02-04T02:29:57.174Z,10.83
2018-02-04T02:32:24.710Z,11.37
2018-02-04T02:34:52.227Z,11.07
2018-02-04T02:37:19.777Z,11.40
2018-02-04T02:39:47.609Z,10.93
2018-02-04T02:42:15.183Z,11.17
2018-02-04T02:44:42.748Z,13.53
2018-02-04T02:47:10.359Z,10.47
2018-02-04T02:49:37.905Z,11.93
2018-02-04T02:52:05.445Z,10.43
2018-02-04T02:54:32.997Z,11.30
2018-02-04T02:57:00.538Z,10.73
2018-02-04T02:59:28.312Z,10.10
2018-02-04T03:01:55.869Z,10.30
2018-02-04T03:04:23.404Z,16.00
2018-02-04T03:06:50.982Z,11.03
2018-02-04T03:09:18.513Z,9.70
2018-02-04T03:11:46.097Z,10.77
2018-02-04T03:14:13.617Z,9.90
2018-02-04T03:16:41.170Z,10.20
2018-02-04T03:19:09.076Z,12.40
2018-02-04T03:21:36.862Z,10.40
2018-02-04T03:24:04.449Z,9.80
2018-02-04T03:26:32.058Z,9.90
2018-02-04T03:28:59.581Z,10.13
2018-02-04T03:31:27.120Z,10.17
2018-02-04T03:33:54.701Z,10.70
2018-02-04T03:36:22.235Z,10.10
2018-02-04T03:38:49.796Z,10.60
2018-02-04T03:41:17.316Z,10.47
2018-02-04T03:43:44.855Z,11.33
2018-02-04T03:46:12.450Z,10.33
2018-02-04T03:48:40.233Z,10.07
2018-02-04T03:51:07.789Z,10.73
2018-02-04T03:53:35.339Z,9.70
2018-02-04T03:56:02.936Z,9.93
2018-02-04T03:58:30.514Z,11.50
2018-02-04T04:00:58.094Z,10.23
2018-02-04T04:03:25.661Z,10.60
2018-02-04T04:05:53.177Z,10.07
2018-02-04T04:08:20.732Z,10.20
2018-02-04T04:10:48.252Z,9.83
2018-02-04T04:13:15.863Z,10.73
2018-02-04T04:15:43.384Z,10.60
2018-02-04T04:18:11.052Z,10.00
2018-02-04T04:20:38.584Z,11.13
2018-02-04T04:23:06.109Z,10.73
2018-02-04T04:25:33.670Z,11.77
2018-02-04T04:28:01.193Z,10.70
2018-02-04T04:30:28.746Z,10.57
2018-02-04T04:32:56.278Z,11.60
2018-02-04T04:35:24.099Z,10.17
2018-02-04T04:37:51.678Z,10.43
2018-02-04T04:40:19.264Z,10.70
2018-02-04T04:42:46.814Z,10.27
2018-02-04T04:45:14.643Z,10.87
2018-02-04T04:47:42.222Z,12.23
2018-02-04T04:50:09.764Z,10.73
2018-02-04T04:52:37.629Z,13.70
2018-02-04T04:55:05.185Z,10.77
2018-02-04T04:57:32.782Z,10.73
2018-02-04T05:00:00.313Z,10.80
2018-02-04T05:02:28.185Z,11.43
2018-02-04T05:04:55.710Z,11.33
2018-02-04T05:07:23.255Z,12.13
2018-02-04T05:09:50.789Z,13.70
2018-02-04T05:12:18.367Z,12.97
2018-02-04T05:14:45.898Z,14.00
2018-02-04T05:17:13.790Z,15.10
2018-02-04T05:19:41.308Z,10.37
2018-02-04T05:22:09.180Z,11.60
2018-02-04T05:24:36.702Z,11.17
2018-02-04T05:27:04.247Z,14.10
2018-02-04T05:29:31.836Z,11.47
2018-02-04T05:31:59.362Z,11.17
2018-02-04T05:34:26.947Z,11.37
2018-02-04T05:36:54.481Z,14.43
2018-02-04T05:39:22.008Z,11.43
2018-02-04T05:41:49.890Z,12.50
2018-02-04T05:44:17.444Z,12.40
2018-02-04T05:46:45.019Z,12.10
2018-02-04T05:49:12.554Z,12.87
2018-02-04T05:51:40.071Z,12.97
2018-02-04T05:54:07.999Z,13.77
2018-02-04T05:56:35.553Z,13.20
2018-02-04T05:59:03.421Z,15.43
2018-02-04T06:01:31.398Z,14.30
2018-02-04T06:03:58.959Z,12.53
2018-02-04T06:06:26.473Z,12.53
2018-02-04T06:08:54.010Z,13.03
2018-02-04T06:11:21.831Z,13.00
2018-02-04T06:13:49.391Z,16.03
2018-02-04T06:16:17.267Z,14.10
2018-02-04T06:18:45.143Z,13.83
2018-02-04T06:21:12.995Z,14.33
2018-02-04T06:23:40.629Z,13.80
2018-02-04T06:26:08.178Z,12.77
2018-02-04T06:28:35.981Z,13.53
2018-02-04T06:31:03.568Z,12.63
2018-02-04T06:33:31.136Z,14.60
2018-02-04T06:35:58.973Z,17.10
2018-02-04T06:38:26.588Z,13.80
2018-02-04T06:40:54.407Z,12.77
2018-02-04T06:43:21.955Z,13.77
2018-02-04T06:45:49.746Z,13.77
2018-02-04T06:48:17.282Z,15.03
2018-02-04T06:50:44.813Z,14.50
2018-02-04T06:53:12.373Z,14.33
2018-02-04T06:55:39.890Z,14.13
2018-02-04T06:58:07.409Z,14.07
2018-02-04T07:00:35.195Z,17.43
2018-02-04T07:03:02.764Z,12.50
2018-02-04T07:05:30.319Z,15.87
2018-02-04T07:07:57.881Z,16.03
2018-02-04T07:10:25.418Z,15.00
2018-02-04T07:12:52.960Z,14.40
2018-02-04T07:15:20.617Z,15.40
2018-02-04T07:17:48.426Z,14.07
2018-02-04T07:20:15.969Z,14.47
2018-02-04T07:22:43.529Z,25.57
2018-02-04T07:25:11.072Z,14.73
2018-02-04T07:27:38.599Z,14.43
2018-02-04T07:30:06.151Z,16.33
2018-02-04T07:32:33.687Z,15.97
2018-02-04T07:35:01.234Z,13.77
2018-02-04T07:37:28.753Z,14.33
2018-02-04T07:39:56.293Z,12.33
2018-02-04T07:42:24.031Z,12.83
2018-02-04T07:44:51.915Z,12.70
2018-02-04T07:47:19.471Z,15.10
2018-02-04T07:49:47.002Z,14.50
2018-02-04T07:52:14.791Z,15.90
2018-02-04T07:54:42.331Z,15.07
2018-02-04T07:57:10.113Z,14.53
2018-02-04T07:59:37.649Z,14.87
2018-02-04T08:02:05.186Z,20.30
2018-02-04T08:04:32.839Z,17.70
2018-02-04T08:07:00.369Z,16.73
2018-02-04T08:09:28.831Z,14.43
2018-02-04T08:11:56.511Z,16.90
2018-02-04T08:14:24.073Z,20.43
2018-02-04T08:16:51.608Z,14.57
2018-02-04T08:19:19.303Z,15.93
2018-02-04T08:21:46.855Z,14.40
2018-02-04T08:24:14.421Z,13.73
2018-02-04T08:26:41.976Z,12.70
2018-02-04T08:29:09.938Z,12.33
2018-02-04T08:31:37.472Z,12.60
2018-02-04T08:34:05.013Z,15.50
2018-02-04T08:36:32.579Z,13.60
2018-02-04T08:39:00.203Z,14.40
2018-02-04T08:41:27.741Z,13.27
2018-02-04T08:43:55.294Z,15.40
2018-02-04T08:46:22.832Z,19.10
2018-02-04T08:48:50.390Z,15.40
2018-02-04T08:51:17.926Z,15.60
2018-02-04T08:53:45.458Z,16.77
2018-02-04T08:56:13.018Z,14.93
2018-02-04T08:58:40.542Z,16.53
2018-02-04T09:01:08.103Z,13.53
2018-02-04T09:03:35.640Z,15.53
2018-02-04T09:06:03.193Z,13.70
2018-02-04T09:08:31.019Z,13.50
2018-02-04T09:10:58.591Z,13.00
2018-02-04T09:13:26.447Z,14.33
2018-02-04T09:15:54.002Z,13.17
2018-02-04T09:18:21.614Z,14.07
2018-02-04T09:20:49.454Z,16.60
2018-02-04T09:23:17.308Z,16.70
2018-02-04T09:25:45.185Z,20.40
2018-02-04T09:28:12.711Z,33.43
2018-02-04T09:30:40.246Z,31.40
2018-02-04T09:33:07.769Z,31.83
2018-02-04T09:35:35.369Z,33.43
2018-02-04T09:38:02.923Z,30.53
2018-02-04T09:40:30.446Z,30.87
2018-02-04T09:42:58.009Z,33.80
2018-02-04T09:45:25.556Z,37.97
2018-02-04T09:47:53.162Z,28.93
2018-02-04T09:50:20.716Z,25.87
2018-02-04T09:52:48.257Z,35.23
2018-02-04T09:55:15.810Z,28.60
2018-02-04T09:57:43.342Z,39.50
2018-02-04T10:00:10.886Z,40.70
2018-02-04T10:02:38.405Z,32.27
2018-02-04T10:05:05.971Z,35.53
2018-02-04T10:07:33.535Z,24.67
2018-02-04T10:10:01.130Z,27.20
2018-02-04T10:12:28.649Z,24.07
2018-02-04T10:14:56.189Z,30.20
2018-02-04T10:17:23.702Z,29.13
2018-02-04T10:19:51.280Z,28.77
2018-02-04T10:22:19.063Z,25.40
2018-02-04T10:24:46.640Z,23.73
2018-02-04T10:27:14.245Z,27.10
2018-02-04T10:29:42.055Z,27.40
2018-02-04T10:32:09.604Z,20.70
2018-02-04T10:34:37.386Z,21.37
2018-02-04T10:37:05.361Z,26.83
2018-02-04T10:39:33.247Z,27.20
2018-02-04T10:42:00.889Z,20.70
2018-02-04T10:44:28.461Z,19.73
2018-02-04T10:46:56.030Z,19.07
2018-02-04T10:49:23.680Z,17.03
2018-02-04T10:51:56.835Z,18.70
2018-02-04T10:54:24.421Z,19.87
2018-02-04T10:56:52.050Z,17.70
2018-02-04T10:59:19.682Z,16.60
2018-02-04T11:01:47.305Z,18.00
2018-02-04T11:04:14.875Z,19.33
2018-02-04T11:06:42.481Z,12.97
2018-02-04T11:09:10.046Z,14.00
2018-02-04T11:11:37.636Z,14.27
2018-02-04T11:14:05.273Z,15.77
2018-02-04T11:16:32.981Z,18.70
2018-02-04T11:19:00.624Z,14.80
2018-02-04T11:21:28.565Z,11.87
2018-02-04T11:23:56.200Z,12.47
2018-02-04T11:26:23.903Z,12.17
2018-02-04T11:28:51.438Z,14.03
2018-02-04T11:31:19.936Z,11.73
2018-02-04T11:33:47.525Z,13.40
2018-02-04T11:36:15.086Z,15.30
2018-02-04T11:38:42.668Z,14.87
2018-02-04T11:41:10.546Z,12.57
2018-02-04T11:43:38.102Z,12.20
2018-02-04T11:46:05.734Z,14.00
2018-02-04T11:48:33.367Z,13.50
2018-02-04T11:51:00.981Z,11.70
2018-02-04T11:53:28.644Z,13.00
2018-02-04T11:55:56.508Z,14.10
2018-02-04T11:58:24.139Z,11.30
2018-02-04T12:00:51.782Z,12.40
2018-02-04T12:03:19.352Z,13.77
2018-02-04T12:05:46.953Z,13.27
2018-02-04T12:08:14.590Z,12.10
2018-02-04T12:10:42.172Z,14.80
2018-02-04T12:13:09.749Z,11.63
2018-02-04T12:15:37.317Z,15.47
2018-02-04T12:18:04.911Z,10.90
2018-02-04T12:20:32.450Z,13.40
2018-02-04T12:23:00.045Z,11.13
2018-02-04T12:25:27.634Z,10.83
2018-02-04T12:27:55.213Z,10.53
2018-02-04T12:30:23.728Z,15.90
2018-02-04T12:32:51.291Z,15.50
2018-02-04T12:35:19.257Z,11.40
2018-02-04T12:37:46.998Z,13.80
2018-02-04T12:40:14.517Z,11.73
2018-02-04T12:42:42.088Z,12.80
2018-02-04T12:45:09.757Z,13.13
2018-02-04T12:47:37.311Z,13.23
2018-02-04T12:50:04.841Z,11.10
2018-02-04T12:52:32.417Z,12.00
2018-02-04T12:55:00.044Z,13.87
2018-02-04T12:57:27.671Z,11.87
2018-02-04T12:59:55.202Z,12.17
2018-02-04T13:02:23.110Z,12.07
2018-02-04T13:04:50.698Z,12.70
2018-02-04T13:07:18.759Z,11.77
2018-02-04T13:09:46.359Z,10.40
2018-02-04T13:12:14.010Z,10.80
2018-02-04T13:14:41.566Z,11.70
2018-02-04T13:17:09.267Z,11.77
2018-02-04T13:19:36.928Z,12.00
2018-02-04T13:22:04.560Z,11.13
2018-02-04T13:24:32.130Z,15.27
2018-02-04T13:26:59.722Z,12.03
2018-02-04T13:29:27.283Z,10.97
2018-02-04T13:31:54.831Z,14.07
2018-02-04T13:34:22.393Z,12.80
2018-02-04T13:36:49.958Z,19.10
2018-02-04T13:39:17.584Z,13.83
2018-02-04T13:41:45.152Z,14.50
2018-02-04T13:44:12.692Z,19.50
2018-02-04T13:46:40.259Z,12.73
2018-02-04T13:49:07.906Z,14.10
2018-02-04T13:51:35.515Z,13.90
2018-02-04T13:54:03.060Z,12.97
2018-02-04T13:56:30.743Z,13.50
2018-02-04T13:58:58.264Z,12.60
2018-02-04T14:01:25.818Z,14.60
2018-02-04T14:03:53.667Z,15.33
2018-02-04T14:06:21.210Z,13.30
2018-02-04T14:08:48.858Z,11.50
2018-02-04T14:11:16.410Z,12.57
2018-02-04T14:13:43.949Z,13.80
2018-02-04T14:16:11.578Z,11.90
2018-02-04T14:18:39.149Z,15.03
2018-02-04T14:21:06.813Z,14.80
2018-02-04T14:23:34.507Z,11.90
2018-02-04T14:26:02.155Z,13.80
2018-02-04T14:28:29.795Z,11.97
2018-02-04T14:30:57.482Z,11.80
2018-02-04T14:33:25.426Z,14.27
2018-02-04T14:35:53.040Z,12.17
2018-02-04T14:38:20.576Z,17.70
2018-02-04T14:40:48.119Z,16.13
2018-02-04T14:43:15.934Z,13.80
2018-02-04T14:45:43.497Z,14.10
2018-02-04T14:48:11.176Z,14.03
2018-02-04T14:50:38.725Z,13.17
2018-02-04T14:53:06.349Z,13.60
2018-02-04T14:55:34.274Z,16.00
2018-02-04T14:58:01.961Z,13.43
2018-02-04T15:00:29.809Z,13.40
2018-02-04T15:02:57.366Z,14.77
2018-02-04T15:05:24.954Z,14.00
2018-02-04T15:07:52.531Z,15.50
2018-02-04T15:10:20.107Z,16.73
2018-02-04T15:12:47.642Z,15.37
2018-02-04T15:15:15.434Z,13.60
2018-02-04T15:17:43.007Z,13.90
2018-02-04T15:20:10.826Z,15.03
2018-02-04T15:22:38.461Z,15.63
2018-02-04T15:25:06.030Z,15.30
2018-02-04T15:27:33.574Z,16.80
2018-02-04T15:30:01.106Z,14.83
2018-02-04T15:32:28.692Z,18.63
2018-02-04T15:34:56.293Z,16.50
2018-02-04T15:37:23.846Z,15.67
2018-02-04T15:39:51.488Z,15.60
2018-02-04T15:42:19.018Z,20.50
2018-02-04T15:44:46.589Z,17.47
2018-02-04T15:47:14.386Z,20.03
2018-02-04T15:49:42.023Z,16.43
2018-02-04T15:52:09.609Z,16.37
2018-02-04T15:54:37.178Z,14.83
2018-02-04T15:57:04.718Z,19.83
2018-02-04T15:59:32.322Z,20.80
2018-02-04T16:01:59.920Z,19.37
2018-02-04T16:04:27.492Z,18.73
2018-02-04T16:06:55.381Z,18.00
2018-02-04T16:09:22.975Z,17.50
2018-02-04T16:11:51.374Z,17.80
2018-02-04T16:14:18.996Z,19.53
2018-02-04T16:16:46.587Z,15.60
2018-02-04T16:19:14.529Z,16.80
2018-02-04T16:21:42.379Z,20.63
2018-02-04T16:24:09.953Z,17.97
2018-02-04T16:26:37.501Z,19.33
2018-02-04T16:29:05.114Z,21.27
2018-02-04T16:31:32.679Z,20.70
2018-02-04T16:34:00.202Z,22.20
2018-02-04T16:36:27.778Z,22.77
2018-02-04T16:38:55.364Z,20.37
2018-02-04T16:41:22.934Z,21.47
2018-02-04T16:43:50.935Z,21.40
2018-02-04T16:46:18.577Z,25.83
2018-02-04T16:48:46.186Z,29.00
2018-02-04T16:51:13.745Z,21.63
2018-02-04T16:53:41.332Z,29.03
2018-02-04T16:56:08.910Z,27.13
2018-02-04T16:58:36.911Z,25.77
2018-02-04T17:01:04.555Z,29.47
2018-02-04T17:03:32.445Z,26.43
2018-02-04T17:06:00.314Z,26.90
2018-02-04T17:08:27.874Z,31.27
2018-02-04T17:10:55.409Z,27.77
2018-02-04T17:13:23.207Z,32.60
2018-02-04T17:15:51.013Z,36.10
2018-02-04T17:18:18.572Z,35.50
2018-02-04T17:20:46.158Z,33.80
2018-02-04T17:23:13.834Z,36.90
2018-02-04T17:25:41.451Z,36.43
2018-02-04T17:28:09.077Z,34.70
2018-02-04T17:30:37.149Z,41.40
2018-02-04T17:33:04.691Z,43.50
2018-02-04T17:35:33.380Z,36.93
2018-02-04T17:38:01.321Z,38.47
2018-02-04T17:40:29.165Z,44.87
2018-02-04T17:42:56.790Z,43.17
2018-02-04T17:45:24.625Z,36.90
2018-02-04T17:47:52.691Z,45.13
2018-02-04T17:50:20.319Z,37.60
2018-02-04T17:52:47.912Z,45.63
2018-02-04T17:55:15.507Z,45.67
2018-02-04T17:57:43.022Z,46.37
2018-02-04T18:00:10.661Z,36.17
2018-02-04T18:02:38.526Z,35.13
2018-02-04T18:05:06.317Z,40.53
2018-02-04T18:07:33.916Z,45.17
2018-02-04T18:10:01.483Z,45.97
2018-02-04T18:12:29.010Z,39.87
2018-02-04T18:14:56.935Z,44.17
2018-02-04T18:17:24.551Z,41.33
2018-02-04T18:19:52.118Z,49.80
2018-02-04T18:22:19.683Z,39.07
2018-02-04T18:24:47.275Z,44.13
2018-02-04T18:27:14.841Z,39.63
2018-02-04T18:29:42.480Z,42.97
2018-02-04T18:32:10.086Z,44.97
2018-02-04T18:34:37.642Z,41.20
2018-02-04T18:37:05.238Z,42.90
2018-02-04T18:39:33.251Z,60.03
2018-02-04T18:42:00.843Z,52.57
2018-02-04T18:44:28.386Z,55.60
2018-02-04T18:46:55.924Z,50.63
2018-02-04T18:49:23.571Z,55.30
2018-02-04T18:51:51.134Z,56.93
2018-02-04T18:54:18.695Z,49.03
2018-02-04T18:56:46.316Z,54.73
2018-02-04T18:59:13.909Z,56.67
2018-02-04T19:01:41.531Z,61.00
2018-02-04T19:04:09.083Z,55.37
2018-02-04T19:06:36.662Z,58.03
2018-02-04T19:09:04.340Z,51.23
2018-02-04T19:11:31.855Z,58.80
2018-02-04T19:13:59.423Z,54.47
2018-02-04T19:16:27.021Z,66.37
2018-02-04T19:18:54.547Z,61.43
2018-02-04T19:21:22.133Z,59.97
2018-02-04T19:23:49.691Z,59.80
2018-02-04T19:26:17.272Z,77.80
2018-02-04T19:28:44.861Z,63.23
2018-02-04T19:31:12.405Z,59.63
2018-02-04T19:33:39.961Z,75.73
2018-02-04T19:36:07.561Z,74.20
2018-02-04T19:38:35.226Z,68.30
2018-02-04T19:41:02.829Z,61.40
2018-02-04T19:43:30.402Z,87.97
2018-02-04T19:45:57.976Z,61.93
2018-02-04T19:48:25.641Z,65.90
2018-02-04T19:50:53.228Z,66.60
2018-02-04T19:53:20.915Z,81.33
2018-02-04T19:55:48.452Z,72.00
2018-02-04T19:58:15.981Z,70.57
2018-02-04T20:00:43.734Z,65.37
2018-02-04T20:03:11.362Z,63.53
2018-02-04T20:05:38.938Z,66.80
2018-02-04T20:08:06.543Z,68.57
2018-02-04T20:10:34.136Z,65.40
2018-02-04T20:13:01.715Z,64.67
2018-02-04T20:15:29.313Z,65.77
2018-02-04T20:17:57.228Z,70.20
2018-02-04T20:20:24.828Z,68.27
2018-02-04T20:22:52.402Z,62.73
2018-02-04T20:25:20.050Z,63.87
2018-02-04T20:27:47.694Z,65.00
2018-02-04T20:30:15.243Z,64.73
2018-02-04T20:32:54.561Z,71.23
2018-02-04T20:35:22.214Z,59.37
2018-02-04T20:37:49.893Z,64.90
2018-02-04T20:40:17.507Z,62.00
2018-02-04T20:42:45.158Z,66.47
2018-02-04T20:45:12.760Z,67.33
2018-02-04T20:47:40.346Z,59.47
2018-02-04T20:50:07.917Z,60.87
2018-02-04T20:52:35.497Z,67.13
2018-02-04T20:55:03.020Z,71.60
2018-02-04T20:57:30.606Z,57.57
2018-02-04T20:59:58.170Z,63.63
2018-02-04T21:02:25.751Z,53.23
2018-02-04T21:04:53.320Z,62.43
2018-02-04T21:07:20.866Z,58.20
2018-02-04T21:09:48.438Z,61.53
2018-02-04T21:12:16.033Z,71.90
2018-02-04T21:14:43.560Z,60.20
2018-02-04T21:17:11.117Z,66.73
2018-02-04T21:19:38.684Z,64.70
2018-02-04T21:22:06.230Z,53.73
2018-02-04T21:24:33.789Z,63.30
2018-02-04T21:27:01.347Z,55.70
2018-02-04T21:29:28.877Z,64.17
2018-02-04T21:31:56.430Z,57.20
2018-02-04T21:34:23.964Z,61.93
2018-02-04T21:36:51.531Z,65.03
2018-02-04T21:39:19.090Z,60.30
2018-02-04T21:41:46.878Z,57.63
2018-02-04T21:44:14.411Z,53.53
2018-02-04T21:46:41.936Z,55.27
2018-02-04T21:49:09.762Z,57.27
2018-02-04T21:51:37.291Z,66.13
2018-02-04T21:54:04.827Z,49.50
2018-02-04T21:56:32.385Z,63.60
2018-02-04T21:58:59.911Z,52.77
2018-02-04T22:01:27.469Z,57.63
2018-02-04T22:03:55.089Z,51.23
2018-02-04T22:06:22.689Z,54.00
2018-02-04T22:08:50.340Z,59.87
2018-02-04T22:11:17.884Z,54.80
2018-02-04T22:13:45.674Z,61.43
2018-02-04T22:16:13.247Z,59.23
2018-02-04T22:18:40.784Z,64.40
2018-02-04T22:21:08.307Z,56.37
2018-02-04T22:23:35.922Z,54.43
2018-02-04T22:26:03.562Z,63.10
2018-02-04T22:28:31.119Z,64.83
2018-02-04T22:30:58.652Z,54.30
2018-02-04T22:33:26.430Z,59.53
2018-02-04T22:35:53.991Z,60.07
2018-02-04T22:38:21.514Z,64.13
2018-02-04T22:40:49.070Z,55.77
2018-02-04T22:43:16.674Z,62.97
2018-02-04T22:45:45.632Z,60.27
2018-02-04T22:48:13.473Z,59.20
2018-02-04T22:50:41.057Z,55.63
2018-02-04T22:53:08.914Z,59.63
2018-02-04T22:55:36.498Z,55.07
2018-02-04T22:58:04.043Z,56.80
2018-02-04T23:00:31.562Z,63.60
2018-02-04T23:02:59.085Z,53.30
2018-02-04T23:05:26.606Z,59.03
2018-02-04T23:07:54.149Z,62.53
2018-02-04T23:10:21.708Z,57.33
2018-02-04T23:12:49.217Z,60.30
2018-02-04T23:15:16.766Z,66.60
2018-02-04T23:17:44.616Z,54.50
2018-02-04T23:20:12.165Z,54.57
2018-02-04T23:22:39.685Z,60.10
2018-02-04T23:25:07.599Z,56.70
2018-02-04T23:27:35.250Z,55.30
2018-02-04T23:30:02.850Z,66.60
2018-02-04T23:32:30.379Z,66.97
2018-02-04T23:34:58.146Z,60.77
2018-02-04T23:37:25.662Z,56.53
2018-02-04T23:39:53.213Z,63.50
2018-02-04T23:42:20.743Z,70.87
2018-02-04T23:44:48.301Z,68.00
2018-02-04T23:47:15.860Z,62.70
2018-02-04T23:49:43.468Z,59.97
2018-02-04T23:52:11.024Z,69.10
2018-02-04T23:54:38.790Z,70.40
2018-02-04T23:57:06.400Z,74.03
2018-02-04T23:59:34.260Z,66.10
